Monday, July 23, 2018, 11:22 AM GMT
Back to Local

CWVU, Brier Island, N. S.

Location: , , Canada Lat: 44.286
Local Time: 11:22 AM GMT (11:22 GMT) Lon: -66.347
Time Zone: GMT Elev: 52 ft

Show me the last for .
Show Coded

Time T Td Feel RH Dir Speed Gust Alt SLP Vis Weather Sky Remarks
2018-07-23 11:00 61 61 - 98 160° 15 - - 30.37 0 Peak wind: 19 mph (17 kts) from 150° at 26 min
2018-07-23 10:00 60 60 - 98 160° 15 - - 30.37 0 None
2018-07-23 09:00 60 59 - 98 160° 14 - - 30.36 0 Peak wind: 19 mph (17 kts) from 160° at 10 min
2018-07-23 08:00 58 60 - 105 160° 14 20 - 30.35 0 Peak wind: 21 mph (19 kts) from 150° at 23 min
2018-07-23 07:00 60 59 - 98 160° 14 22 - 30.35 0 Peak wind: 21 mph (19 kts) from 160° at 56 min
2018-07-23 06:00 60 60 - 98 160° 14 - - 30.34 0 Peak wind: 19 mph (17 kts) from 160° at 32 min
2018-07-23 05:00 61 61 - 98 160° 14 - - 30.35 0 Peak wind: 20 mph (18 kts) from 160° at 15 min
2018-07-23 04:00 61 61 - 98 160° 15 - - 30.36 0 Peak wind: 20 mph (18 kts) from 160° at 03 min
2018-07-23 03:00 61 60 - 98 160° 15 - - 30.36 0 Peak wind: 19 mph (17 kts) from 160° at 11 min
2018-07-23 02:00 61 60 - 98 160° 15 - - 30.36 0 Peak wind: 20 mph (18 kts) from 160° at 48 min
2018-07-23 01:00 61 61 - 98 160° 15 - - 30.35 0 None
2018-07-23 00:00 62 61 - 98 160° 15 - - 30.34 0 Peak wind: 19 mph (17 kts) from 160° at 54 min
2018-07-22 23:00 62 60 - 92 160° 15 - - 30.33 0 Peak wind: 19 mph (17 kts) from 170° at 28 min
2018-07-22 22:00 65 64 - 97 160° 15 - - 30.31 0 Peak wind: 21 mph (19 kts) from 170° at 05 min
2018-07-22 21:00 64 63 - 96 160° 15 22 - 30.31 0 Peak wind: 21 mph (19 kts) from 170° at 12 min
2018-07-22 20:00 65 63 - 94 160° 15 - - 30.30 0 Peak wind: 20 mph (18 kts) from 160° at 09 min
2018-07-22 19:00 66 65 - 95 160° 14 20 - 30.30 0 Peak wind: 19 mph (17 kts) from 150° at 44 min
2018-07-22 18:00 65 64 - 98 160° 13 - - 30.30 0 None
2018-07-22 17:00 62 62 - 96 150° 12 - - 30.30 0 None
2018-07-22 16:00 61 61 - 98 160° 14 - - 30.29 0 None
2018-07-22 15:00 60 60 - 98 160° 14 - - 30.29 0 None
2018-07-22 14:00 60 60 - 98 160° 13 - - 30.28 0 None
2018-07-22 13:00 60 61 - 104 150° 13 - - 30.26 0 1-hr Precip Total: 0.01"
2018-07-22 12:00 61 60 - 98 100° 10 - - 30.25 0 None

Support USWX by starting your Amazon purchase here.